Time;durP1;ratioP1;P1;durP2;ratioP2;P2;SDS_P1;SDS_P2;PMS_P1;PMS_P2;Temp;Humidity;BMP_temperature;BMP_pressure;BME280_temperature;BME280_humidity;BME280_pressure;Samples;Min_cycle;Max_cycle;Signal;HPM_P1;HPM_P2
2021/08/06 00:01:44;;;;;;;12.38;5.55;;;;;;;18.30;76.91;100091.50;5113638;28;20040;-73
2021/08/06 00:04:11;;;;;;;14.48;5.38;;;;;;;18.30;76.98;100085.28;5111637;28;20043;-73
2021/08/06 00:06:39;;;;;;;14.48;5.90;;;;;;;18.23;77.10;100085.38;5113932;28;20071;-73
2021/08/06 00:09:06;;;;;;;11.88;5.20;;;;;;;18.24;77.05;100081.63;5114171;28;20050;-73
2021/08/06 00:11:33;;;;;;;11.93;5.10;;;;;;;18.22;76.75;100087.22;5114521;28;20502;-73
2021/08/06 00:14:01;;;;;;;12.23;5.47;;;;;;;18.22;77.25;100086.41;5113263;28;20035;-73
2021/08/06 00:16:28;;;;;;;14.32;5.57;;;;;;;18.25;76.63;100077.91;5114443;28;20446;-73
2021/08/06 00:18:56;;;;;;;12.38;5.43;;;;;;;18.25;77.27;100085.16;5114390;28;20040;-73
2021/08/06 00:21:22;;;;;;;14.63;5.40;;;;;;;18.23;77.56;100077.31;5113601;28;20050;-73
2021/08/06 00:23:49;;;;;;;10.68;5.35;;;;;;;18.22;77.09;100081.84;5096034;28;20047;-73
2021/08/06 00:26:16;;;;;;;12.13;5.25;;;;;;;18.27;77.18;100075.84;5113270;28;20448;-73
2021/08/06 00:28:43;;;;;;;14.10;5.25;;;;;;;18.22;77.33;100072.97;5113897;28;20039;-73
2021/08/06 00:31:10;;;;;;;12.00;5.45;;;;;;;18.24;76.91;100070.91;5112856;28;20519;-73
2021/08/06 00:33:38;;;;;;;11.18;5.05;;;;;;;18.25;76.91;100071.75;5112347;28;20677;-73
2021/08/06 00:36:07;;;;;;;15.07;5.32;;;;;;;18.19;77.12;100073.41;5113688;28;20055;-73
2021/08/06 00:38:36;;;;;;;13.05;5.95;;;;;;;18.10;77.12;100064.84;5112378;28;20067;-73
2021/08/06 00:41:04;;;;;;;12.30;5.55;;;;;;;18.16;77.37;100068.50;5112472;28;20043;-74
2021/08/06 00:43:31;;;;;;;15.80;5.55;;;;;;;18.10;77.77;100069.38;5113829;28;20039;-73
2021/08/06 00:46:05;;;;;;;17.83;5.57;;;;;;;18.11;77.76;100068.34;5111032;28;20465;-73
2021/08/06 00:48:35;;;;;;;11.13;5.13;;;;;;;18.15;77.61;100064.97;5092958;28;20055;-73
2021/08/06 00:51:03;;;;;;;10.95;5.40;;;;;;;18.17;77.51;100065.59;5104699;28;20450;-73
2021/08/06 00:53:31;;;;;;;11.98;5.60;;;;;;;18.11;77.63;100057.59;5111864;28;20046;-73
2021/08/06 00:56:03;;;;;;;10.60;5.45;;;;;;;18.13;77.62;100050.97;5113524;28;20043;-73
2021/08/06 00:58:32;;;;;;;12.05;5.65;;;;;;;18.06;77.92;100049.38;5113529;28;20043;-73
2021/08/06 01:00:59;;;;;;;11.98;5.72;;;;;;;18.01;78.21;100050.06;5113130;28;20039;-73
2021/08/06 01:03:46;;;;;;;10.13;5.38;;;;;;;17.98;78.09;100047.81;5112227;28;20122;-73
2021/08/06 01:06:22;;;;;;;10.88;5.30;;;;;;;18.02;77.58;100049.00;5113265;28;20050;-73
2021/08/06 01:09:15;;;;;;;14.73;5.50;;;;;;;17.99;78.13;100055.66;5113086;28;20048;-73
2021/08/06 01:11:47;;;;;;;13.43;5.35;;;;;;;18.03;79.19;100050.66;5113325;28;20097;-73
2021/08/06 01:14:17;;;;;;;12.95;5.60;;;;;;;18.03;78.92;100056.03;5112277;28;20487;-73
2021/08/06 01:16:50;;;;;;;12.50;5.55;;;;;;;18.06;80.02;100049.38;5113255;28;20043;-73
2021/08/06 01:22:15;;;;;;;13.02;5.68;;;;;;;18.08;79.80;100058.03;5110740;27;20741;-71
2021/08/06 01:24:51;;;;;;;13.68;5.22;;;;;;;18.07;79.22;100048.38;5110270;28;20047;-72
2021/08/06 01:27:21;;;;;;;13.38;6.05;;;;;;;17.99;79.54;100044.91;5092167;28;20123;-72
2021/08/06 01:29:48;;;;;;;16.73;5.72;;;;;;;17.97;79.61;100041.63;5110221;28;20131;-72
2021/08/06 01:32:17;;;;;;;12.82;5.78;;;;;;;17.88;80.27;100034.88;5109845;28;20562;-73
2021/08/06 01:34:44;;;;;;;15.13;5.53;;;;;;;17.81;79.40;100029.53;5108973;28;20048;-72
2021/08/06 01:37:11;;;;;;;11.70;6.05;;;;;;;17.80;79.72;100027.91;5109988;28;20093;-73
2021/08/06 01:39:43;;;;;;;13.82;6.07;;;;;;;17.79;79.21;100031.63;5120323;28;20071;-73
2021/08/06 01:42:31;;;;;;;14.20;6.43;;;;;;;17.77;80.01;100031.03;5130545;27;20062;-73
2021/08/06 01:45:06;;;;;;;11.73;5.57;;;;;;;17.82;79.73;100023.13;5097584;28;20050;-73
2021/08/06 01:47:41;;;;;;;14.73;6.20;;;;;;;17.73;79.79;100021.75;5106157;28;20050;-74
2021/08/06 01:50:27;;;;;;;12.77;6.38;;;;;;;17.80;79.42;100027.91;5076704;28;20036;-73
2021/08/06 01:53:02;;;;;;;12.25;6.30;;;;;;;17.78;79.81;100024.63;5108257;28;20118;-74
2021/08/06 01:55:44;;;;;;;13.63;6.72;;;;;;;17.78;79.92;100021.94;5109718;28;20377;-74
2021/08/06 01:58:14;;;;;;;16.48;6.63;;;;;;;17.87;79.19;100027.88;5109705;28;20044;-73
2021/08/06 02:00:50;;;;;;;12.18;6.13;;;;;;;17.86;79.49;100022.72;5108554;28;20119;-73
2021/08/06 02:03:18;;;;;;;15.55;6.00;;;;;;;17.85;78.97;100024.59;5109268;28;20046;-73
2021/08/06 02:05:51;;;;;;;11.35;6.05;;;;;;;17.89;79.00;100020.44;5109610;28;20040;-73
2021/08/06 02:08:20;;;;;;;15.55;6.40;;;;;;;17.79;79.09;100009.31;5109490;28;20044;-73
2021/08/06 02:10:50;;;;;;;14.60;6.40;;;;;;;17.85;78.84;100011.19;5075143;28;20271;-73
2021/08/06 02:13:21;;;;;;;;;;;;;;;17.91;78.83;100009.47;5108669;28;20297;-73
2021/08/06 02:15:49;;;;;;;13.48;5.70;;;;;;;17.91;78.63;100018.34;5109037;28;19926;-73
2021/08/06 02:18:25;;;;;;;14.55;5.93;;;;;;;17.91;78.41;100012.97;5107914;28;20043;-73
2021/08/06 02:21:09;;;;;;;13.68;5.85;;;;;;;17.86;78.55;100017.38;5109037;28;20044;-73
2021/08/06 02:23:38;;;;;;;11.57;6.05;;;;;;;17.83;78.18;100019.41;5109234;28;20040;-73
2021/08/06 02:26:06;;;;;;;16.40;6.55;;;;;;;17.89;78.68;100014.25;5108005;28;20113;-72
2021/08/06 02:28:35;;;;;;;12.73;6.38;;;;;;;17.85;78.08;100016.56;5108472;28;20463;-73
2021/08/06 02:31:03;;;;;;;11.00;5.93;;;;;;;17.91;78.43;100010.28;5109126;28;20500;-72
2021/08/06 02:33:30;;;;;;;12.68;5.78;;;;;;;17.95;78.25;100013.34;5095428;28;20446;-74
2021/08/06 02:35:58;;;;;;;12.85;5.97;;;;;;;17.95;78.27;100003.44;5095339;28;20075;-73
2021/08/06 02:38:27;;;;;;;11.32;6.10;;;;;;;18.06;78.53;100012.63;5095211;28;20044;-73
2021/08/06 02:40:55;;;;;;;19.55;6.18;;;;;;;18.09;78.77;100014.88;5093562;28;20032;-72
2021/08/06 02:43:22;;;;;;;12.40;6.28;;;;;;;18.07;79.44;100011.59;5093442;28;20052;-74
2021/08/06 02:45:49;;;;;;;19.25;6.88;;;;;;;17.99;80.30;100017.22;5094298;28;20055;-73
2021/08/06 02:48:16;;;;;;;14.27;6.00;;;;;;;18.10;79.08;100011.16;5092698;28;20071;-74
2021/08/06 02:50:44;;;;;;;12.88;6.07;;;;;;;18.03;78.80;100005.84;5095018;28;20028;-73
2021/08/06 02:53:11;;;;;;;11.75;5.63;;;;;;;17.98;81.29;100008.38;5093745;28;20076;-74
2021/08/06 02:55:38;;;;;;;11.98;5.55;;;;;;;18.00;80.12;100010.84;5094618;28;20040;-74
2021/08/06 02:58:05;;;;;;;14.90;5.65;;;;;;;17.88;80.80;100004.53;5093535;28;20044;-73
2021/08/06 03:00:32;;;;;;;15.93;6.00;;;;;;;17.88;81.27;100000.00;5093489;28;20047;-73
2021/08/06 03:02:59;;;;;;;13.20;5.93;;;;;;;17.86;81.07;99995.91;5093713;28;20412;-73
2021/08/06 03:05:27;;;;;;;12.20;5.28;;;;;;;17.77;82.29;99996.16;5094719;28;20388;-73
2021/08/06 03:07:55;;;;;;;13.77;5.10;;;;;;;17.73;81.72;99994.94;5076672;28;20044;-74
2021/08/06 03:10:24;;;;;;;10.80;5.45;;;;;;;17.74;82.58;99999.28;5094572;28;20123;-73
2021/08/06 03:12:51;;;;;;;11.70;5.40;;;;;;;17.74;82.83;99993.91;5094842;28;20504;-73
2021/08/06 03:15:21;;;;;;;12.95;5.55;;;;;;;17.71;83.37;99991.66;5077109;28;20047;-73
2021/08/06 03:17:47;;;;;;;12.90;5.60;;;;;;;17.53;82.85;99973.66;5092714;28;20044;-73
2021/08/06 03:20:18;;;;;;;14.13;5.72;;;;;;;17.55;83.42;99984.97;5094220;28;20052;-73
2021/08/06 03:22:50;;;;;;;11.20;5.25;;;;;;;17.52;83.64;99982.75;5094845;28;20039;-74
2021/08/06 03:25:18;;;;;;;16.08;6.30;;;;;;;17.56;83.42;99977.75;5093068;28;20055;-73
2021/08/06 03:27:46;;;;;;;13.07;5.20;;;;;;;17.43;83.43;99981.38;5093085;28;20043;-73
2021/08/06 03:30:15;;;;;;;12.43;5.28;;;;;;;17.40;82.99;99973.75;5094442;28;20048;-73
2021/08/06 03:32:42;;;;;;;14.55;5.13;;;;;;;17.43;84.20;99976.81;5093062;28;20040;-73
2021/08/06 03:35:10;;;;;;;13.23;5.10;;;;;;;17.37;84.70;99971.50;5092579;28;20070;-73
2021/08/06 03:37:37;;;;;;;10.93;5.57;;;;;;;17.39;84.73;99969.41;5094292;28;20045;-73
2021/08/06 03:40:05;;;;;;;11.75;4.95;;;;;;;17.39;84.36;99959.53;5100845;28;20040;-73
2021/08/06 03:42:32;;;;;;;12.60;5.03;;;;;;;17.39;83.49;99962.22;5099928;28;20048;-73
2021/08/06 03:44:59;;;;;;;11.75;5.57;;;;;;;17.30;84.21;99960.00;5092335;28;20048;-73
2021/08/06 03:47:26;;;;;;;12.85;5.47;;;;;;;17.32;84.24;99960.59;5088938;28;20093;-73
2021/08/06 03:49:53;;;;;;;13.10;6.05;;;;;;;17.27;84.72;99954.03;5075671;28;20047;-73
2021/08/06 03:52:20;;;;;;;14.27;6.47;;;;;;;17.32;85.10;99961.44;5094034;28;20489;-73
2021/08/06 03:54:47;;;;;;;11.35;6.10;;;;;;;17.27;84.81;99955.91;5092380;28;20086;-73
2021/08/06 03:57:14;;;;;;;12.77;5.57;;;;;;;17.27;84.85;99961.28;5093772;28;20450;-73
2021/08/06 03:59:41;;;;;;;14.88;6.15;;;;;;;17.32;84.41;99960.59;5092379;28;20139;-73
2021/08/06 04:02:08;;;;;;;11.60;5.90;;;;;;;17.23;84.50;99957.38;5075557;28;20554;-73
2021/08/06 04:04:35;;;;;;;14.13;5.30;;;;;;;17.19;85.00;99962.34;5092456;28;20072;-74
2021/08/06 04:07:03;;;;;;;16.08;5.57;;;;;;;17.27;84.35;99961.28;5093521;28;20051;-73
2021/08/06 04:09:30;;;;;;;12.02;5.80;;;;;;;17.25;84.83;99963.34;5071632;28;20072;-73
2021/08/06 04:11:56;;;;;;;15.10;5.97;;;;;;;17.15;85.20;99960.31;5072174;28;20047;-73
2021/08/06 04:14:25;;;;;;;12.88;5.90;;;;;;;17.24;85.24;99967.06;5072878;28;20044;-73
2021/08/06 04:16:55;;;;;;;11.35;5.47;;;;;;;17.30;85.02;99963.53;5070663;28;20505;-73
2021/08/06 04:19:22;;;;;;;12.50;5.70;;;;;;;17.31;85.29;99961.66;5071831;28;20036;-73
2021/08/06 04:21:49;;;;;;;12.05;5.65;;;;;;;17.26;84.92;99968.50;5073147;28;20101;-73
2021/08/06 04:24:16;;;;;;;12.77;6.28;;;;;;;17.32;85.42;99968.63;5071008;28;20044;-73
2021/08/06 04:26:43;;;;;;;11.60;5.82;;;;;;;17.43;85.30;99963.41;5072196;28;20428;-74
2021/08/06 04:29:09;;;;;;;12.18;6.40;;;;;;;17.32;84.57;99963.28;5070866;28;20036;-73
2021/08/06 04:31:36;;;;;;;11.95;6.72;;;;;;;17.24;84.80;99967.06;5072684;28;20044;-73
2021/08/06 04:34:03;;;;;;;14.50;7.35;;;;;;;17.30;85.07;99965.38;5071315;28;20043;-73
2021/08/06 04:36:30;;;;;;;12.50;6.68;;;;;;;17.25;84.95;99968.72;5072762;28;20041;-73
2021/08/06 04:38:57;;;;;;;17.38;7.57;;;;;;;17.21;85.05;99959.47;5082390;28;20044;-73
2021/08/06 04:41:24;;;;;;;20.02;7.18;;;;;;;17.24;84.78;99970.53;5093086;28;20044;-73
2021/08/06 04:43:50;;;;;;;14.52;7.32;;;;;;;17.28;84.44;99970.94;5092498;28;20040;-73
2021/08/06 04:46:18;;;;;;;19.13;7.30;;;;;;;17.27;85.33;99969.31;5074854;28;20040;-73
2021/08/06 04:48:45;;;;;;;17.15;7.50;;;;;;;17.35;84.97;99963.66;5091743;28;20044;-73
2021/08/06 04:51:12;;;;;;;14.93;8.07;;;;;;;17.32;85.17;99955.25;5092984;28;20051;-74
2021/08/06 04:53:39;;;;;;;14.45;7.28;;;;;;;17.36;84.89;99959.97;5091483;28;20048;-73
2021/08/06 04:56:06;;;;;;;13.82;7.85;;;;;;;17.30;83.95;99968.88;5074195;28;20036;-74
2021/08/06 04:58:33;;;;;;;14.85;8.05;;;;;;;17.34;84.94;99963.91;5092318;28;20036;-74
2021/08/06 05:01:00;;;;;;;18.20;8.18;;;;;;;17.39;84.25;99970.25;5091526;28;20043;-73
2021/08/06 05:03:27;;;;;;;14.18;7.90;;;;;;;17.31;84.09;99972.38;5091756;28;20067;-74
2021/08/06 05:05:54;;;;;;;17.08;7.75;;;;;;;17.36;84.86;99961.84;5090944;28;20569;-73
2021/08/06 05:08:21;;;;;;;13.93;7.60;;;;;;;17.25;84.17;99960.66;5086068;28;20094;-74
2021/08/06 05:10:48;;;;;;;16.27;7.78;;;;;;;17.35;84.54;99962.84;5071000;28;20102;-74
2021/08/06 05:13:15;;;;;;;15.57;7.97;;;;;;;17.38;83.92;99960.56;5071049;28;20475;-74
2021/08/06 05:15:43;;;;;;;13.85;7.95;;;;;;;17.33;84.07;99959.56;5072623;28;20055;-73
2021/08/06 05:18:10;;;;;;;13.02;7.68;;;;;;;17.35;83.69;99957.50;5062063;28;20048;-73
2021/08/06 05:20:37;;;;;;;17.58;7.13;;;;;;;17.38;84.20;99957.88;5104414;28;20056;-74
2021/08/06 05:23:04;;;;;;;17.17;7.18;;;;;;;17.27;83.93;99969.31;5072504;28;20062;-74
2021/08/06 05:25:32;;;;;;;13.07;6.57;;;;;;;17.39;83.59;99954.19;5071826;28;20792;-73
2021/08/06 05:27:59;;;;;;;14.90;7.13;;;;;;;17.51;84.13;99956.16;5072391;28;20072;-73
2021/08/06 05:30:26;;;;;;;13.88;6.75;;;;;;;17.48;83.30;99956.56;5072736;28;20041;-73
2021/08/06 05:32:54;;;;;;;17.45;6.50;;;;;;;17.42;83.28;99961.75;5072283;28;20045;-73
2021/08/06 05:35:24;;;;;;;18.65;7.28;;;;;;;17.29;83.41;99958.38;5070627;28;20055;-73
2021/08/06 05:37:54;;;;;;;16.48;6.38;;;;;;;17.37;83.36;99961.63;5072152;28;20463;-74
2021/08/06 05:40:22;;;;;;;13.30;6.07;;;;;;;17.45;83.48;99964.03;5107024;28;20051;-74
2021/08/06 05:42:49;;;;;;;13.75;5.95;;;;;;;17.36;83.33;99959.97;5111276;28;20044;-74
2021/08/06 05:45:19;;;;;;;12.85;6.40;;;;;;;17.53;83.97;99968.28;5073206;28;20396;-73
2021/08/06 05:47:51;;;;;;;18.90;6.90;;;;;;;17.53;83.88;99970.16;5075499;28;20068;-73
2021/08/06 05:50:23;;;;;;;12.00;6.60;;;;;;;17.55;83.46;99968.88;5092169;28;20119;-74
2021/08/06 05:52:50;;;;;;;16.83;6.93;;;;;;;17.59;83.56;99971.94;5092110;28;20043;-74
2021/08/06 05:55:19;;;;;;;12.65;6.13;;;;;;;17.58;82.84;99968.44;5090569;28;20044;-73
2021/08/06 05:57:52;;;;;;;15.70;6.95;;;;;;;17.59;83.36;99978.16;5092284;28;20127;-73
2021/08/06 06:00:20;;;;;;;13.23;7.07;;;;;;;17.63;83.62;99978.53;5092350;28;20048;-74
2021/08/06 06:02:54;;;;;;;15.55;6.50;;;;;;;17.76;82.86;99978.41;5075154;28;20044;-73
2021/08/06 06:05:38;;;;;;;17.55;6.70;;;;;;;17.70;82.84;99979.31;5092258;28;20457;-73
2021/08/06 06:08:05;;;;;;;12.52;6.40;;;;;;;17.77;82.54;99984.59;5094378;28;20036;-73
2021/08/06 06:10:34;;;;;;;12.50;6.32;;;;;;;17.80;83.06;99990.34;5095727;28;20064;-73
2021/08/06 06:13:02;;;;;;;15.57;6.22;;;;;;;17.81;82.96;99989.31;5096099;28;20039;-73
2021/08/06 06:15:30;;;;;;;15.20;6.32;;;;;;;17.72;83.27;99981.75;5095507;28;20493;-73
2021/08/06 06:17:56;;;;;;;14.40;5.68;;;;;;;17.70;82.35;99989.19;5092808;28;20074;-73
2021/08/06 06:20:25;;;;;;;15.05;5.97;;;;;;;17.74;83.63;99991.22;5094485;28;20385;-73
2021/08/06 06:22:53;;;;;;;11.65;5.63;;;;;;;17.69;83.79;99991.06;5095797;28;20492;-74
2021/08/06 06:25:21;;;;;;;15.85;6.35;;;;;;;17.84;84.36;99990.72;5095448;28;20489;-74
2021/08/06 06:30:29;;;;;;;16.60;5.88;;;;;;;17.77;83.37;99989.94;5131078;27;20383;-73
2021/08/06 06:32:58;;;;;;;13.75;5.70;;;;;;;17.77;83.99;99989.94;5130981;27;20440;-73
2021/08/06 06:35:28;;;;;;;12.38;5.30;;;;;;;17.71;84.04;99982.78;5095766;28;20048;-72
2021/08/06 06:37:56;;;;;;;13.00;5.68;;;;;;;17.77;83.96;100001.53;5129359;28;20069;-72
2021/08/06 06:40:26;;;;;;;22.30;6.80;;;;;;;17.78;83.98;99994.28;5130483;27;20047;-73
2021/08/06 06:42:55;;;;;;;20.00;6.53;;;;;;;17.88;82.97;100004.53;5129875;27;20126;-72
2021/08/06 06:45:23;;;;;;;17.52;6.35;;;;;;;17.88;83.92;100002.69;5130765;28;20046;-74
2021/08/06 06:47:53;;;;;;;14.73;6.55;;;;;;;18.01;84.05;100007.13;5115685;28;20506;-73
2021/08/06 06:50:24;;;;;;;16.40;6.18;;;;;;;18.07;82.68;100008.09;5130584;27;20046;-74
2021/08/06 06:52:51;;;;;;;13.50;5.73;;;;;;;17.89;82.26;100011.56;5126286;27;20151;-73
2021/08/06 06:55:18;;;;;;;13.68;6.30;;;;;;;18.02;83.53;100008.75;5106504;28;20872;-73
2021/08/06 06:57:51;;;;;;;16.15;5.93;;;;;;;17.99;81.73;100006.50;5108140;28;20044;-73
2021/08/06 07:00:22;;;;;;;16.33;6.40;;;;;;;18.02;83.36;100011.44;5122785;28;20495;-73
2021/08/06 07:02:49;;;;;;;14.32;5.63;;;;;;;18.04;83.32;100001.31;5111905;28;20522;-73
2021/08/06 07:05:16;;;;;;;13.27;5.40;;;;;;;18.14;83.98;100015.03;5128304;27;20040;-73
2021/08/06 07:07:43;;;;;;;13.02;5.90;;;;;;;18.16;83.51;100012.97;5121612;28;20047;-73
2021/08/06 07:10:12;;;;;;;13.25;5.28;;;;;;;18.19;82.43;100019.72;5128177;28;20070;-73
2021/08/06 07:12:41;;;;;;;11.57;4.75;;;;;;;18.22;83.11;100014.75;5128481;28;20047;-73
2021/08/06 07:15:10;;;;;;;12.75;5.38;;;;;;;18.29;82.94;100013.88;5129728;27;20095;-73
2021/08/06 07:17:38;;;;;;;12.23;4.90;;;;;;;18.28;82.19;100015.75;5129451;27;20035;-73
2021/08/06 07:20:07;;;;;;;12.88;5.53;;;;;;;18.33;81.79;100023.13;5127919;28;20066;-74
2021/08/06 07:22:37;;;;;;;14.90;5.18;;;;;;;18.36;81.65;100015.44;5129613;27;20124;-73
2021/08/06 07:25:06;;;;;;;14.52;5.10;;;;;;;18.29;81.23;100022.75;5129480;27;20434;-73
2021/08/06 07:27:33;;;;;;;15.13;5.10;;;;;;;18.35;82.13;100023.72;5127770;28;20076;-73
2021/08/06 07:30:00;;;;;;;16.65;5.75;;;;;;;18.49;82.84;100016.34;5127955;28;20047;-73
2021/08/06 07:32:27;;;;;;;12.80;5.22;;;;;;;18.54;81.24;100017.31;5128101;28;20047;-73
2021/08/06 07:34:55;;;;;;;16.92;5.90;;;;;;;18.57;80.46;100026.78;5127427;27;20047;-73
2021/08/06 07:37:23;;;;;;;15.98;6.15;;;;;;;18.58;81.36;100015.00;5094763;28;20067;-73
2021/08/06 07:39:50;;;;;;;11.95;5.18;;;;;;;18.69;80.73;100021.47;5086665;28;20447;-73
2021/08/06 07:42:17;;;;;;;10.23;4.80;;;;;;;18.74;79.20;100022.44;5090464;28;20040;-73
2021/08/06 07:44:45;;;;;;;15.85;5.50;;;;;;;18.70;79.70;100023.09;5114615;28;20048;-73
2021/08/06 07:47:12;;;;;;;17.45;4.63;;;;;;;18.86;78.60;100033.28;5100714;28;20397;-73
2021/08/06 07:49:41;;;;;;;14.00;5.20;;;;;;;18.81;79.05;100025.09;5113437;28;20040;-73
2021/08/06 07:52:10;;;;;;;16.00;5.22;;;;;;;18.87;78.96;100023.38;5113754;28;20403;-73
2021/08/06 07:54:39;;;;;;;15.65;5.30;;;;;;;18.94;78.36;100030.28;5114996;28;20050;-73
2021/08/06 07:57:07;;;;;;;14.52;5.13;;;;;;;19.16;76.95;100025.25;5113715;28;20097;-73
2021/08/06 07:59:35;;;;;;;13.77;5.13;;;;;;;19.16;78.81;100027.94;5113604;28;20074;-73
2021/08/06 08:02:02;;;;;;;17.15;4.43;;;;;;;19.26;77.50;100038.13;5113834;28;20063;-73
2021/08/06 08:04:28;;;;;;;16.70;4.78;;;;;;;19.23;78.51;100043.13;5062136;28;20047;-73
2021/08/06 08:07:00;;;;;;;14.23;4.57;;;;;;;18.86;78.61;100035.16;5114743;28;20085;-73
2021/08/06 08:09:28;;;;;;;10.65;3.83;;;;;;;18.78;80.20;100042.44;5114907;28;20507;-73
2021/08/06 08:11:55;;;;;;;8.88;3.03;;;;;;;18.70;77.83;100052.66;5113763;28;20090;-73
2021/08/06 08:14:23;;;;;;;8.60;2.72;;;;;;;18.48;78.35;100052.28;5113204;28;20101;-73
2021/08/06 08:16:51;;;;;;;6.95;2.28;;;;;;;18.26;77.47;100066.13;5113435;28;20119;-72
2021/08/06 08:19:18;;;;;;;5.50;1.90;;;;;;;18.01;77.63;100063.47;5113329;28;20036;-73
2021/08/06 08:21:46;;;;;;;9.13;2.33;;;;;;;17.97;79.60;100073.00;5114848;28;20067;-73
2021/08/06 08:24:14;;;;;;;6.25;2.40;;;;;;;17.76;79.31;100072.28;5084617;28;20067;-73
2021/08/06 08:26:40;;;;;;;7.97;2.40;;;;;;;17.75;79.89;100075.19;5095784;28;20617;-73
2021/08/06 08:29:07;;;;;;;7.03;2.72;;;;;;;17.82;81.67;100067.91;5112716;28;20048;-72
2021/08/06 08:31:35;;;;;;;7.85;2.28;;;;;;;17.59;80.93;100068.47;5113345;28;20097;-73
2021/08/06 08:34:02;;;;;;;6.03;2.50;;;;;;;17.71;79.66;100074.81;5111706;28;20109;-72
2021/08/06 08:36:29;;;;;;;7.25;2.58;;;;;;;17.60;80.21;100084.38;5114413;28;20108;-72
2021/08/06 08:38:56;;;;;;;7.15;2.50;;;;;;;17.55;79.21;100086.88;5114285;28;20040;-73
2021/08/06 08:41:24;;;;;;;10.13;2.67;;;;;;;17.32;81.31;100095.47;5113977;28;20092;-73
2021/08/06 08:43:51;;;;;;;10.95;2.88;;;;;;;17.38;79.30;100089.25;5114452;28;20036;-73
2021/08/06 08:46:20;;;;;;;8.75;2.55;;;;;;;17.44;81.68;100090.25;5108983;28;20127;-72
2021/08/06 08:48:50;;;;;;;12.05;3.10;;;;;;;17.43;79.92;100094.78;5106191;28;20105;-72
2021/08/06 08:51:17;;;;;;;8.20;3.10;;;;;;;17.43;80.35;100094.78;5112926;28;20065;-72
2021/08/06 08:53:44;;;;;;;7.80;3.20;;;;;;;17.30;81.29;100094.03;5112682;28;20039;-72
2021/08/06 08:56:11;;;;;;;8.30;3.00;;;;;;;17.42;80.22;100101.16;5112337;28;20050;-72
2021/08/06 08:58:39;;;;;;;11.07;3.08;;;;;;;17.52;81.16;100086.47;5113805;28;20040;-73
2021/08/06 09:01:06;;;;;;;8.18;2.67;;;;;;;17.54;80.80;100101.31;5112539;28;20046;-72
2021/08/06 09:03:47;;;;;;;11.25;3.08;;;;;;;17.50;81.21;100101.97;5109150;28;20044;-73
2021/08/06 09:06:40;;;;;;;6.93;2.75;;;;;;;17.55;80.24;100102.13;5073931;28;20048;-73
2021/08/06 09:09:14;;;;;;;9.73;2.80;;;;;;;17.62;79.37;100101.06;5105617;28;20063;-73
2021/08/06 09:12:09;;;;;;;10.98;3.15;;;;;;;17.74;79.50;100093.16;5113369;28;20046;-73
2021/08/06 09:14:56;;;;;;;8.63;3.20;;;;;;;17.75;80.53;100092.09;5111964;28;20076;-73
2021/08/06 09:17:23;;;;;;;9.27;2.97;;;;;;;17.73;79.89;100088.81;5113442;27;20044;-73
2021/08/06 09:19:58;;;;;;;9.02;3.33;;;;;;;17.88;79.25;100091.22;5110362;28;20498;-73
2021/08/06 09:22:29;;;;;;;9.20;2.95;;;;;;;17.83;78.86;100083.00;5106246;28;20040;-73
2021/08/06 09:27:40;;;;;;;9.48;3.33;;;;;;;17.87;80.66;100078.03;5108579;27;20135;-73
2021/08/06 09:30:11;;;;;;;11.35;3.40;;;;;;;17.99;78.30;100087.84;5078014;28;20101;-73
2021/08/06 09:32:54;;;;;;;9.35;3.15;;;;;;;18.14;77.29;100082.13;5049459;28;20516;-73
2021/08/06 09:35:25;;;;;;;10.73;3.20;;;;;;;18.08;77.60;100095.59;5078585;28;20040;-73
2021/08/06 09:37:53;;;;;;;10.10;3.50;;;;;;;17.95;78.50;100096.53;5061845;28;20605;-73
2021/08/06 09:40:24;;;;;;;7.95;3.45;;;;;;;18.05;78.12;100077.28;5073937;28;20408;-73
2021/08/06 09:43:03;;;;;;;10.20;3.35;;;;;;;17.98;77.70;100074.66;5097704;28;20048;-73
2021/08/06 09:45:40;;;;;;;8.88;3.60;;;;;;;18.05;76.85;100078.09;5087091;28;20044;-73
2021/08/06 09:48:08;;;;;;;9.18;3.50;;;;;;;18.08;77.54;100064.25;5085187;28;20059;-73
2021/08/06 09:50:39;;;;;;;10.20;3.78;;;;;;;18.15;79.00;100069.53;5060531;28;20032;-73
2021/08/06 09:53:07;;;;;;;10.27;3.60;;;;;;;18.51;76.30;100066.09;5074675;28;20132;-73
2021/08/06 09:55:37;;;;;;;9.32;3.65;;;;;;;18.56;76.15;100065.44;5053850;28;20066;-70
2021/08/06 09:58:10;;;;;;;10.25;3.40;;;;;;;18.83;75.58;100073.19;5066797;28;20052;-69
2021/08/06 10:00:40;;;;;;;10.30;4.00;;;;;;;19.04;73.77;100067.38;5101866;28;20373;-69
2021/08/06 10:03:08;;;;;;;10.90;3.33;;;;;;;18.92;73.61;100067.31;5078181;28;20041;-69
2021/08/06 10:05:35;;;;;;;10.23;3.35;;;;;;;19.14;73.17;100074.91;5087197;28;20861;-70
2021/08/06 10:08:03;;;;;;;9.75;3.13;;;;;;;19.25;73.45;100076.03;5078223;28;20140;-69
2021/08/06 10:10:32;;;;;;;11.48;3.55;;;;;;;19.13;74.06;100076.75;5093342;28;20488;-69
2021/08/06 10:13:00;;;;;;;12.40;4.20;;;;;;;19.44;73.65;100080.28;5074275;28;20123;-69
2021/08/06 10:15:30;;;;;;;11.82;3.30;;;;;;;19.51;71.23;100077.50;5060809;28;20055;-69
2021/08/06 10:17:58;;;;;;;9.40;3.22;;;;;;;19.66;71.86;100074.38;5087443;28;20042;-70
2021/08/06 10:20:27;;;;;;;12.55;3.58;;;;;;;19.78;70.48;100077.97;5098405;28;20040;-69
2021/08/06 10:22:54;;;;;;;10.02;3.58;;;;;;;19.84;70.29;100076.22;5075580;28;20119;-71
2021/08/06 10:25:23;;;;;;;16.13;4.15;;;;;;;19.93;69.85;100067.56;5059197;28;20538;-70
2021/08/06 10:27:51;;;;;;;12.25;3.55;;;;;;;20.12;68.80;100072.88;5032763;28;20577;-73
2021/08/06 10:30:36;;;;;;;9.75;3.30;;;;;;;20.63;69.98;100068.66;5077044;28;20042;-74
2021/08/06 10:33:23;;;;;;;16.77;3.88;;;;;;;20.93;66.77;100064.94;5064257;28;20045;-73
2021/08/06 10:35:52;;;;;;;11.93;3.40;;;;;;;20.51;67.44;100081.28;5065333;28;20087;-73
2021/08/06 10:38:39;;;;;;;10.80;3.55;;;;;;;20.45;68.32;100063.38;5044236;28;20490;-74
2021/08/06 10:41:17;;;;;;;13.07;3.70;;;;;;;20.43;68.93;100060.06;5047500;28;20036;-74
2021/08/06 10:46:23;;;;;;;18.00;3.10;;;;;;;19.79;68.79;100089.53;5130361;27;20403;-76
2021/08/06 10:48:53;;;;;;;9.57;2.50;;;;;;;18.94;72.52;100124.34;5111919;28;20109;-71
2021/08/06 10:51:24;;;;;;;12.82;2.50;;;;;;;18.37;75.33;100113.75;5118414;28;20051;-72
2021/08/06 10:56:44;;;;;;;12.32;2.50;;;;;;;17.69;78.22;100113.63;5142481;27;20349;-71
2021/08/06 10:59:12;;;;;;;10.32;3.30;;;;;;;17.62;77.39;100106.41;5114394;27;20066;-71
2021/08/06 11:01:42;;;;;;;10.57;3.08;;;;;;;17.73;78.84;100106.78;5082123;27;20039;-71
2021/08/06 11:06:55;;;;;;;10.43;3.17;;;;;;;17.79;81.53;100113.94;5066415;28;20883;-72
2021/08/06 11:09:29;;;;;;;7.43;3.05;;;;;;;18.01;81.01;100109.09;5050009;28;20745;-70
2021/08/06 11:12:12;;;;;;;10.60;3.53;;;;;;;18.04;83.52;100105.97;5036387;28;20120;-73
2021/08/06 11:17:23;;;;;;;11.45;3.50;;;;;;;18.26;79.41;100098.34;5130179;27;20376;-73
2021/08/06 11:19:54;;;;;;;8.15;3.10;;;;;;;18.39;79.40;100100.06;5108551;28;20040;-73
2021/08/06 11:22:31;;;;;;;11.43;3.30;;;;;;;18.56;79.62;100097.66;5123708;27;20047;-73
2021/08/06 11:25:00;;;;;;;10.98;3.85;;;;;;;18.64;79.87;100094.66;5080998;28;20450;-73
2021/08/06 11:27:36;;;;;;;12.68;3.53;;;;;;;18.88;78.06;100100.22;5126859;28;20035;-67
2021/08/06 11:30:09;;;;;;;9.10;3.38;;;;;;;18.91;79.82;100094.41;5125186;28;20046;-71
2021/08/06 11:32:58;;;;;;;9.45;3.55;;;;;;;19.38;76.09;100100.84;5128077;28;20047;-69
2021/08/06 11:35:30;;;;;;;9.55;3.10;;;;;;;19.48;75.95;100100.31;5112852;28;20069;-69
2021/08/06 11:38:05;;;;;;;11.57;3.55;;;;;;;19.55;75.19;100092.13;5128476;28;20047;-70
2021/08/06 11:40:35;;;;;;;9.38;3.58;;;;;;;19.86;72.69;100098.31;5111716;27;20043;-69
2021/08/06 11:43:25;;;;;;;8.55;3.22;;;;;;;20.17;72.99;100107.16;5110830;28;20051;-69
2021/08/06 11:46:07;;;;;;;11.07;3.28;;;;;;;20.13;69.58;100096.03;5125371;28;20108;-68
2021/08/06 11:51:26;;;;;;;8.38;2.70;;;;;;;20.31;69.02;100092.41;5088368;27;20791;-70
2021/08/06 11:53:54;;;;;;;9.75;2.95;;;;;;;20.31;71.31;100095.91;5073879;28;20183;-68
2021/08/06 11:56:22;;;;;;;8.63;3.10;;;;;;;20.61;67.51;100096.88;5087041;28;20048;-69